aviador You're here:

KT70 Decoded Metar

in
Report Time2017-05-24 16:58:00
UTC Time2017-05-24 17:53:49
Flight Rules vfr VFR
Wind220° at 03 kt
W.Rank220° ranks 14
Current wind is below 220° avg. (5.6)
Visibility9999 m
Phenomena:N/A
Clouds:N/A
Expected CloudBase > 5,600 ft AGL from Temp-Dew spread
CeilingNone
Temp24°C
Dew Point10°C (41% RH)
AAT22.9°C
QNH1013 hPa
Raw Report
METAR KT70 241658Z AUTO 22003KT 10SM CLR 24/10 A2990 RMK AO2 SLP116
T02430097 $=

Extra information for KT70:More info

Social comments